Elista, Russia
Current Conditions -  °F | °C
As of 8:00 PM on Monday 22 Dec 2014 (Local Time) from URWI Reporting Station
Overcast Overcast  
Wind Chill: 22°   Ceiling: 3100
Heat Index: 34°   Visibility: 6mi
Dew Point: 27°   Wind: 22mph
Humidity: 75%   Direction: 280°W
Pressure: 30"   Gusts: 34mph
Location:  46.32°N, 44.21°E
Report Text: URWI 221700Z 28010G15MPS 9999 OVC031 01/M03 Q1016 NOSIG
Loading
Personal Weather Stations






























Interactive Weather Map New forecast layout! Learn more

10-Day Weather Forecast

Advertisements
Track Severe Weather on mobile